Time;durP1;ratioP1;P1;durP2;ratioP2;P2;SDS_P1;SDS_P2;PMS_P1;PMS_P2;Temp;Humidity;BMP_temperature;BMP_pressure;BME280_temperature;BME280_humidity;BME280_pressure;Samples;Min_cycle;Max_cycle;Signal;HPM_P1;HPM_P2
2023/06/25 00:00:20;;;;;;;;;7.67;6.33;;;;;26.51;46.47;56060.13;5006104;28;45960;-87
2023/06/25 00:02:45;;;;;;;;;4.67;3.67;;;;;26.78;46.52;55926.28;5009306;28;46262;-87
2023/06/25 00:05:11;;;;;;;;;5.33;5.33;;;;;26.37;46.44;55876.75;5004143;28;45525;-87
2023/06/25 00:07:36;;;;;;;;;7.67;6.00;;;;;26.74;47.06;55695.75;5001067;28;46080;-88
2023/06/25 00:10:02;;;;;;;;;6.00;5.00;;;;;25.79;46.79;55503.44;5003370;28;45623;-86
2023/06/25 00:12:27;;;;;;;;;5.00;5.00;;;;;26.44;46.84;55312.75;4996604;28;47041;-87
2023/06/25 00:14:53;;;;;;;;;5.00;5.00;;;;;25.88;47.08;54629.22;5005345;28;45718;-87
2023/06/25 00:17:18;;;;;;;;;5.67;5.00;;;;;25.76;47.07;54847.25;4993363;28;45982;-87
2023/06/25 00:19:44;;;;;;;;;5.33;5.33;;;;;25.99;47.38;55084.22;5005536;28;45379;-88
2023/06/25 00:22:11;;;;;;;;;4.33;4.00;;;;;25.78;47.14;54746.09;5006013;28;45486;-87
2023/06/25 00:24:37;;;;;;;;;6.00;4.33;;;;;26.32;47.28;54453.84;5006580;28;45621;-88
2023/06/25 00:27:02;;;;;;;;;4.67;4.67;;;;;25.97;47.28;54412.69;5000465;28;45466;-87
2023/06/25 00:29:27;;;;;;;;;5.00;5.00;;;;;25.40;47.21;54203.81;5007420;28;45372;-87
2023/06/25 00:31:53;;;;;;;;;2.00;2.00;;;;;26.55;47.38;53893.66;4999841;28;47687;-87
2023/06/25 00:34:19;;;;;;;;;5.00;5.00;;;;;25.45;47.13;53976.53;4998129;28;50476;-87
2023/06/25 00:36:45;;;;;;;;;5.00;4.00;;;;;26.15;47.46;53827.00;4998827;28;45540;-86
2023/06/25 00:39:11;;;;;;;;;4.67;4.67;;;;;25.88;47.27;53751.44;4984672;28;45550;-87
2023/06/25 00:41:39;;;;;;;;;4.67;4.67;;;;;26.41;47.22;53229.56;5008340;28;45909;-87
2023/06/25 00:44:06;;;;;;;;;5.00;5.00;;;;;26.22;47.92;53034.25;4998018;28;45455;-86
2023/06/25 00:46:31;;;;;;;;;6.00;5.67;;;;;25.80;47.71;52888.53;5000140;28;45473;-87
2023/06/25 00:49:01;;;;;;;;;8.00;8.00;;;;;25.86;47.69;52902.16;4982706;28;45634;-87
2023/06/25 00:51:27;;;;;;;;;6.33;5.67;;;;;25.57;47.64;52196.31;4980070;28;47247;-87
2023/06/25 00:53:53;;;;;;;;;6.00;6.00;;;;;26.14;47.86;52311.97;4998030;28;45843;-87
2023/06/25 00:56:27;;;;;;;;;5.00;5.00;;;;;25.49;47.69;52464.53;4980016;28;45535;-87
2023/06/25 00:59:00;;;;;;;;;6.33;4.00;;;;;25.56;47.71;52052.94;4998069;28;45499;-87
2023/06/25 05:00:13;;;;;;;;;8.00;5.50;;;;;24.55;53.25;12415.28;6028135;23;46087;31
2023/06/25 05:02:38;;;;;;;;;7.00;4.67;;;;;24.23;53.06;11725.25;4896538;28;46692;-83
2023/06/25 05:05:04;;;;;;;;;4.33;4.00;;;;;24.56;52.99;12074.28;4912095;23;45509;-81
2023/06/25 05:07:29;;;;;;;;;4.33;4.33;;;;;24.59;53.11;11734.03;4908693;28;45817;-82
2023/06/25 05:09:55;;;;;;;;;5.00;4.00;;;;;24.49;53.01;12072.50;4910752;28;46061;-82
2023/06/25 05:12:20;;;;;;;;;5.67;5.67;;;;;24.69;52.19;12760.00;4915563;28;45813;-82
2023/06/25 05:14:45;;;;;;;;;4.67;4.67;;;;;24.64;52.60;12758.69;4913955;28;45465;-81
2023/06/25 05:17:11;;;;;;;;;4.00;4.00;;;;;24.76;52.48;13103.00;4915576;28;45494;-82
2023/06/25 05:19:36;;;;;;;;;4.33;3.00;;;;;24.78;52.40;12762.22;4904091;28;46191;-83
2023/06/25 05:22:02;;;;;;;;;5.00;5.00;;;;;24.67;52.65;13442.00;4910612;28;45419;-83
2023/06/25 05:24:28;;;;;;;;;5.33;5.33;;;;;24.84;52.29;13105.16;4903001;28;45474;-83
2023/06/25 05:26:53;;;;;;;;;5.00;5.00;;;;;24.87;52.23;13447.34;4908111;28;47623;-83
2023/06/25 05:29:19;;;;;;;;;2.33;2.33;;;;;24.59;51.68;13781.06;4905111;28;46028;-83
2023/06/25 05:31:45;;;;;;;;;3.67;3.33;;;;;24.92;52.22;13448.59;4911734;28;45324;-82
2023/06/25 05:34:11;;;;;;;;;4.00;4.00;;;;;24.73;51.92;14126.22;4911871;28;45430;-83
2023/06/25 05:36:36;;;;;;;;;4.67;4.67;;;;;24.60;51.78;13781.50;4912021;28;45748;-85
2023/06/25 05:39:05;;;;;;;;;3.00;3.00;;;;;24.81;52.04;14128.50;4914872;28;46737;-83
2023/06/25 05:41:30;;;;;;;;;9.00;6.00;;;;;24.85;51.45;14129.81;4916522;28;45693;-83
2023/06/25 05:43:56;;;;;;;;;4.33;4.33;;;;;24.94;51.56;13790.59;4916370;28;45802;-83
2023/06/25 05:46:21;;;;;;;;;4.67;4.67;;;;;24.47;51.91;13777.84;4916809;28;45389;-86
2023/06/25 05:48:55;;;;;;;;;5.00;5.00;;;;;24.88;52.17;13447.63;4907991;28;45918;-84
2023/06/25 05:51:20;;;;;;;;;5.00;4.67;;;;;24.62;51.83;13099.50;4909310;28;45487;-86
2023/06/25 05:53:46;;;;;;;;;6.33;5.67;;;;;24.88;52.18;13447.63;5006036;22;45467;-84
2023/06/25 05:56:11;;;;;;;;;4.00;4.00;;;;;25.19;51.94;12772.94;4923911;23;45540;-86
2023/06/25 05:58:37;;;;;;;;;6.67;6.00;;;;;25.16;51.83;12772.00;4916431;28;46300;-87
2023/06/25 06:01:05;;;;;;;;;7.67;6.33;;;;;25.07;52.12;12769.75;4915631;28;45437;-87
2023/06/25 06:03:31;;;;;;;;;4.67;4.67;;;;;25.14;52.03;12771.47;4933507;28;45787;-86
2023/06/25 06:05:57;;;;;;;;;6.00;4.33;;;;;25.37;52.10;12777.53;4960244;28;45506;-86
2023/06/25 06:08:23;;;;;;;;;7.67;6.33;;;;;25.41;51.79;12436.84;4915946;28;45560;-88
2023/06/25 06:10:48;;;;;;;;;6.00;6.00;;;;;24.98;51.92;12426.13;4906707;28;45512;-87
2023/06/25 06:13:14;;;;;;;;;5.00;4.33;;;;;24.94;51.69;12425.09;4919439;28;45522;-88
2023/06/25 06:15:40;;;;;;;;;5.00;5.00;;;;;25.45;51.70;12096.37;4916242;28;45575;-88
2023/06/25 06:18:05;;;;;;;;;7.00;5.33;;;;;25.49;51.27;12097.28;4928346;28;46750;-87
2023/06/25 06:20:30;;;;;;;;;8.00;6.33;;;;;25.66;51.30;12101.56;4915477;28;45426;-86
2023/06/25 06:22:57;;;;;;;;;7.00;6.00;;;;;25.52;51.41;12097.91;4915942;28;45527;-86
2023/06/25 06:25:23;;;;;;;;;8.00;5.00;;;;;25.51;51.53;12097.78;4932515;28;45582;-86
2023/06/25 06:27:48;;;;;;;;;8.33;7.67;;;;;25.59;51.83;11758.16;4995763;28;47959;-86
2023/06/25 06:30:14;;;;;;;;;61.25;48.00;;;;;25.79;51.65;11079.53;4997516;28;45885;-86
2023/06/25 06:32:39;;;;;;;;;13.67;13.67;;;;;25.90;51.40;11082.13;4944151;28;45423;-86
2023/06/25 06:35:04;;;;;;;;;13.00;13.00;;;;;25.98;51.30;11425.72;4969301;28;47409;-86
2023/06/25 06:37:30;;;;;;;;;7.00;7.00;;;;;25.82;51.06;11763.59;4938264;28;47268;-86
2023/06/25 06:39:55;;;;;;;;;7.00;6.00;;;;;25.92;50.72;12107.78;4926556;28;45534;-86
2023/06/25 06:42:21;;;;;;;;;9.00;8.00;;;;;26.06;50.63;12453.41;4953931;28;45519;-86
2023/06/25 06:44:46;;;;;;;;;9.00;8.00;;;;;25.90;50.89;12107.53;4931611;28;45408;-86
2023/06/25 06:47:11;;;;;;;;;7.00;7.00;;;;;26.29;50.83;11775.00;4952317;28;45743;-86
2023/06/25 06:49:37;;;;;;;;;7.33;7.33;;;;;26.34;50.15;13486.88;4994758;28;45466;-86
2023/06/25 06:52:02;;;;;;;;;7.67;7.67;;;;;26.00;49.96;14161.75;4943004;28;45863;-86
2023/06/25 06:54:28;;;;;;;;;8.00;7.33;;;;;26.45;49.54;14174.34;4965421;28;45541;-86
2023/06/25 06:56:53;;;;;;;;;7.67;7.00;;;;;26.16;49.21;15535.22;4922056;28;45588;-85
2023/06/25 06:59:18;;;;;;;;;11.33;9.00;;;;;26.45;49.07;16229.00;4941758;28;45796;-85
2023/06/25 07:01:44;;;;;;;;;9.67;8.00;;;;;26.50;47.74;19657.25;4931284;28;45717;-85
2023/06/25 07:04:09;;;;;;;;;10.00;8.33;;;;;26.44;48.63;18969.47;4937473;28;45339;-84
2023/06/25 07:06:34;;;;;;;;;10.00;9.67;;;;;26.74;47.96;20352.28;4944696;28;45581;-85
2023/06/25 07:09:00;;;;;;;;;8.33;8.33;;;;;26.73;47.54;21724.03;4984028;28;45462;-84
2023/06/25 07:11:26;;;;;;;;;10.67;7.33;;;;;26.74;47.67;21724.66;4980766;28;45566;-85
2023/06/25 07:13:54;;;;;;;;;7.67;7.00;;;;;26.73;47.63;22753.59;4922900;28;45417;-85
2023/06/25 07:16:19;;;;;;;;;7.67;7.67;;;;;26.81;46.25;25160.69;4946647;28;48025;-86
2023/06/25 07:18:45;;;;;;;;;7.00;6.67;;;;;26.69;46.45;26056.91;4944465;28;45422;-85
2023/06/25 07:21:11;;;;;;;;;6.00;6.00;;;;;26.45;46.69;24953.72;4947368;28;45501;-85
2023/06/25 07:23:37;;;;;;;;;9.00;8.00;;;;;26.23;46.26;26571.41;4991750;28;45436;-85
2023/06/25 07:33:20;;;;;;;;;12.33;8.00;;;;;27.19;45.01;31877.34;5117280;23;46502;-86
2023/06/25 07:35:45;;;;;;;;;8.33;6.67;;;;;27.31;45.09;32344.31;4923641;28;45526;-85
2023/06/25 07:38:11;;;;;;;;;10.67;9.67;;;;;27.43;45.01;32001.19;4925784;28;46945;-85
2023/06/25 07:40:36;;;;;;;;;10.00;8.67;;;;;27.29;45.07;32502.19;4916945;28;45485;-85
2023/06/25 07:43:03;;;;;;;;;9.33;8.00;;;;;27.55;44.88;33260.06;4932729;28;45414;-84
2023/06/25 07:45:28;;;;;;;;;9.00;9.00;;;;;27.41;45.34;32479.31;4934175;28;45500;-85
2023/06/25 07:47:55;;;;;;;;;11.33;6.33;;;;;27.66;45.23;32450.56;4942647;28;47459;-84
2023/06/25 07:50:27;;;;;;;;;8.67;8.00;;;;;27.77;44.65;34786.78;4921373;28;45502;-83
2023/06/25 07:52:52;;;;;;;;;11.33;9.33;;;;;27.31;44.09;35776.25;4928694;28;45625;-84
2023/06/25 07:55:17;;;;;;;;;8.00;6.33;;;;;27.84;44.71;35248.91;4926252;28;45469;-84
2023/06/25 07:57:42;;;;;;;;;7.67;7.67;;;;;27.81;44.21;36637.38;4923267;28;54187;-85
2023/06/25 08:00:09;;;;;;;;;11.33;9.00;;;;;27.98;43.83;37794.94;4928804;28;45564;-83
2023/06/25 08:02:34;;;;;;;;;9.00;8.33;;;;;28.06;43.10;38258.22;4931520;28;45529;-84
2023/06/25 08:04:59;;;;;;;;;9.00;8.67;;;;;27.95;43.10;39438.44;4905206;28;45863;-83
2023/06/25 08:07:25;;;;;;;;;8.00;7.00;;;;;28.13;43.06;40176.75;4920250;28;46273;-83
2023/06/25 08:09:50;;;;;;;;;11.00;8.67;;;;;28.14;42.67;41440.63;4921379;28;55488;-83
2023/06/25 08:12:16;;;;;;;;;10.00;9.00;;;;;28.12;42.69;41817.22;4923066;28;46616;-83
2023/06/25 08:14:41;;;;;;;;;12.00;8.00;;;;;28.18;42.58;41889.53;4928886;28;45387;-83
2023/06/25 08:17:06;;;;;;;;;9.67;9.00;;;;;28.36;42.01;43185.91;4933988;28;45902;-83
2023/06/25 08:19:32;;;;;;;;;9.00;9.00;;;;;28.29;42.26;43648.09;4934623;28;45478;-84
2023/06/25 08:21:57;;;;;;;;;7.67;7.33;;;;;28.33;42.63;42948.56;4935814;28;45522;-83
2023/06/25 08:24:23;;;;;;;;;10.00;10.00;;;;;28.56;42.55;42797.94;4934437;28;45629;-82
2023/06/25 08:26:48;;;;;;;;;9.00;8.33;;;;;28.86;42.20;43049.66;4932915;28;45439;-82
2023/06/25 08:29:13;;;;;;;;;10.00;8.67;;;;;29.00;41.17;44293.59;4928433;28;45510;-82
2023/06/25 08:31:39;;;;;;;;;10.67;9.33;;;;;29.06;41.13;45066.91;4936241;28;45432;-83
2023/06/25 08:34:04;;;;;;;;;10.67;10.67;;;;;29.33;40.93;45737.38;4935359;28;45757;-84
2023/06/25 08:36:29;;;;;;;;;9.67;9.67;;;;;29.57;40.22;46135.50;5123007;23;47067;-85
2023/06/25 08:38:55;;;;;;;;;8.00;8.00;;;;;29.88;39.67;46764.72;4935828;28;45446;-87
2023/06/25 08:41:20;;;;;;;;;8.67;8.67;;;;;29.79;39.01;47625.41;4929629;28;45996;-86
2023/06/25 08:43:46;;;;;;;;;12.00;8.67;;;;;30.36;39.50;47272.59;4923325;28;45543;-86
2023/06/25 08:46:11;;;;;;;;;10.33;8.67;;;;;30.85;38.51;49230.09;4935250;28;46060;-86
2023/06/25 08:48:38;;;;;;;;;9.67;8.00;;;;;31.21;37.82;49594.50;4931859;28;45924;-86
2023/06/25 08:51:12;;;;;;;;;7.67;7.67;;;;;31.38;37.55;49951.44;4936109;28;45443;-86
2023/06/25 08:53:37;;;;;;;;;10.33;8.00;;;;;31.82;37.06;50078.16;4972800;28;45666;-88
2023/06/25 08:56:05;;;;;;;;;8.33;8.33;;;;;32.22;36.21;51844.72;4922903;28;47181;-89
2023/06/25 08:59:17;;;;;;;;;;;;;;;;;;;;;
2023/06/25 09:02:10;;;;;;;;;11.00;10.00;;;;;32.48;34.75;54826.91;4897163;28;66704;-89
2023/06/25 09:04:43;;;;;;;;;10.67;10.00;;;;;33.01;34.42;56211.53;4885705;28;45888;-89
2023/06/25 09:08:10;;;;;;;;;;;;;;;;;;;;;
2023/06/25 09:10:36;;;;;;;;;10.33;7.33;;;;;32.91;34.41;57717.22;4932010;28;72428;-89
2023/06/25 09:13:07;;;;;;;;;11.67;9.33;;;;;33.12;33.54;58623.13;4937888;28;45461;-89
2023/06/25 09:15:32;;;;;;;;;9.33;9.33;;;;;33.34;33.69;58972.91;4900651;28;45747;-89
2023/06/25 09:18:23;;;;;;;;;8.33;8.33;;;;;32.94;33.34;59285.94;4881467;28;47228;-87
2023/06/25 09:20:52;;;;;;;;;8.33;8.00;;;;;32.88;32.51;59982.22;4897934;28;45508;-87
2023/06/25 09:23:19;;;;;;;;;8.33;8.33;;;;;33.58;32.61;60805.94;4874058;29;45460;-86
2023/06/25 09:25:45;;;;;;;;;8.67;8.67;;;;;33.74;31.75;61418.38;4863485;29;45534;-87
2023/06/25 09:28:11;;;;;;;;;9.67;9.67;;;;;33.69;31.00;62092.16;4864663;29;46801;-87
2023/06/25 09:30:41;;;;;;;;;10.33;9.33;;;;;34.05;31.40;62305.28;4884837;28;45514;-88
2023/06/25 09:33:08;;;;;;;;;10.00;10.00;;;;;34.38;31.27;62244.03;4920073;28;45466;-87
2023/06/25 09:35:33;;;;;;;;;10.33;10.33;;;;;35.24;30.24;62061.38;4931686;28;46399;-85
2023/06/25 09:38:00;;;;;;;;;8.00;8.00;;;;;35.46;29.30;62881.09;4933684;28;46271;-84
2023/06/25 09:40:25;;;;;;;;;8.33;8.33;;;;;35.14;30.45;62852.16;4933657;28;45487;-86
2023/06/25 09:42:54;;;;;;;;;8.33;7.67;;;;;35.56;30.52;62827.59;4932479;28;45542;-87
2023/06/25 09:45:21;;;;;;;;;8.33;8.00;;;;;35.93;29.66;63018.00;4939527;23;45493;-82
2023/06/25 09:47:48;;;;;;;;;8.33;8.33;;;;;36.80;28.57;62760.09;4892543;28;45457;-84
2023/06/25 09:50:23;;;;;;;;;6.67;6.67;;;;;37.11;28.32;63062.09;4899926;28;45410;-85
2023/06/25 09:53:03;;;;;;;;;8.00;8.00;;;;;37.24;28.29;63469.44;4876583;28;45736;-85
2023/06/25 09:55:29;;;;;;;;;10.00;8.67;;;;;37.21;28.48;63257.41;4896496;28;45558;-87
2023/06/25 10:01:26;;;;;;;;;8.00;8.00;;;;;38.70;26.53;63483.66;5157306;22;46561;-86
2023/06/25 10:03:51;;;;;;;;;6.00;6.00;;;;;38.15;26.70;63731.94;4949540;22;45635;-87
2023/06/25 10:06:18;;;;;;;;;6.00;6.00;;;;;38.56;26.32;63642.41;5135901;23;1127660;-88
2023/06/25 10:09:00;;;;;;;;;8.00;8.00;;;;;39.12;25.67;63787.19;4929991;28;46221;-89
2023/06/25 10:14:21;;;;;;;;;8.00;8.00;;;;;39.99;24.84;64347.19;4929726;23;45548;-83
2023/06/25 10:16:54;;;;;;;;;10.33;10.33;;;;;40.49;25.15;64107.38;4924024;28;45646;-83
2023/06/25 10:19:25;;;;;;;;;7.00;7.00;;;;;40.75;23.80;64292.53;4923909;28;45754;-83
2023/06/25 10:22:05;;;;;;;;;7.67;6.33;;;;;41.19;24.47;64179.34;4925978;28;45515;-83
2023/06/25 10:24:40;;;;;;;;;8.33;7.67;;;;;41.57;24.47;64097.16;4926194;28;47610;-82
2023/06/25 10:27:07;;;;;;;;;6.00;6.00;;;;;41.98;23.45;64030.28;4926439;28;45782;-82
2023/06/25 10:29:40;;;;;;;;;8.00;6.33;;;;;42.26;23.29;63993.56;4925326;28;45620;-82
2023/06/25 10:32:05;;;;;;;;;8.00;5.33;;;;;42.51;22.18;64198.00;4924184;28;45758;-80
2023/06/25 10:34:35;;;;;;;;;7.00;7.00;;;;;42.66;23.36;64208.22;4931150;28;45562;-79
2023/06/25 10:37:04;;;;;;;;;7.33;7.33;;;;;42.70;21.47;64448.75;4958070;28;45442;-76
2023/06/25 10:39:40;;;;;;;;;7.00;7.00;;;;;42.71;21.13;64580.47;4927459;28;47560;-77
2023/06/25 10:42:07;;;;;;;;;6.00;6.00;;;;;42.71;21.33;64743.84;4918906;28;45495;-76
2023/06/25 10:44:33;;;;;;;;;6.33;6.33;;;;;42.82;21.26;64713.72;4915461;28;45567;-78
2023/06/25 10:47:07;;;;;;;;;9.00;6.33;;;;;42.71;21.29;64872.22;4919455;28;45490;-76
2023/06/25 10:49:33;;;;;;;;;6.33;6.33;;;;;42.71;20.37;65061.19;4926045;28;46389;-76
2023/06/25 10:51:59;;;;;;;;;5.67;5.67;;;;;42.57;20.99;65204.66;4926943;28;45452;-78
2023/06/25 10:54:25;;;;;;;;;14.00;13.00;;;;;42.46;21.04;65253.63;4929200;28;45574;-78
2023/06/25 10:59:45;;;;;;;;;8.33;8.33;;;;;42.04;20.74;65443.66;5030417;22;45494;-85
2023/06/25 11:02:21;;;;;;;;;7.00;7.00;;;;;42.21;20.91;65442.53;4924046;28;45496;-85
2023/06/25 11:04:55;;;;;;;;;8.00;8.00;;;;;42.50;20.70;65504.75;4929200;28;45497;-82
2023/06/25 11:09:59;;;;;;;;;10.00;8.67;;;;;42.40;20.77;65276.97;5802105;22;45973;-94
2023/06/25 11:12:28;;;;;;;;;7.33;7.00;;;;;42.62;20.97;65242.44;4938317;28;45498;-95
2023/06/25 11:18:09;;;;;;;;;6.67;6.33;;;;;43.17;20.29;65388.44;5562760;23;46052;-90
2023/06/25 11:20:47;;;;;;;;;10.33;9.00;;;;;42.63;20.19;65301.91;4920611;28;48058;-89
2023/06/25 11:23:28;;;;;;;;;7.00;7.00;;;;;42.17;20.27;65402.53;4930703;28;45657;-96
2023/06/25 11:26:20;;;;;;;;;9.00;7.67;;;;;43.05;20.65;65525.31;4936090;28;45431;-90
2023/06/25 11:28:49;;;;;;;;;9.00;9.00;;;;;42.33;19.79;65489.72;4929698;28;45529;-89
2023/06/25 11:31:15;;;;;;;;;7.33;7.33;;;;;42.93;19.94;65582.59;4948036;23;45973;-87
2023/06/25 11:33:40;;;;;;;;;9.33;9.33;;;;;42.81;19.96;65657.66;4925655;28;45747;-89
2023/06/25 11:36:07;;;;;;;;;9.33;9.33;;;;;42.73;19.60;65627.03;4917962;28;45447;-93
2023/06/25 11:38:36;;;;;;;;;9.00;8.00;;;;;42.62;20.19;65715.41;4975910;28;45613;-87
2023/06/25 11:41:01;;;;;;;;;7.33;7.33;;;;;42.82;20.31;65803.31;4926772;28;46473;-87
2023/06/25 11:43:27;;;;;;;;;6.00;6.00;;;;;42.74;19.89;65844.97;4925856;28;45497;-87
2023/06/25 11:45:58;;;;;;;;;8.00;8.00;;;;;42.61;20.73;65941.59;4933292;28;45808;-88
2023/06/25 11:48:23;;;;;;;;;5.67;5.67;;;;;42.55;20.26;66010.50;4924724;28;45448;-88
2023/06/25 11:50:49;;;;;;;;;9.00;8.00;;;;;42.46;20.54;65958.75;4936496;28;47148;-92
2023/06/25 11:53:15;;;;;;;;;8.67;7.33;;;;;42.21;20.33;66034.09;4919771;28;45449;-90
2023/06/25 11:55:41;;;;;;;;;8.00;8.00;;;;;42.21;20.50;66125.75;4912359;28;45776;-90
2023/06/25 11:58:10;;;;;;;;;10.67;9.33;;;;;42.25;20.90;66089.13;4921587;28;45419;-90
2023/06/25 12:00:36;;;;;;;;;9.33;8.00;;;;;41.87;20.85;66249.75;4934553;28;46353;-90
2023/06/25 12:03:01;;;;;;;;;11.67;10.33;;;;;41.74;20.64;66366.16;4928689;28;45975;-89
2023/06/25 12:05:26;;;;;;;;;12.00;11.00;;;;;41.51;21.00;66471.22;4923448;28;45732;-92
2023/06/25 12:07:52;;;;;;;;;9.33;7.67;;;;;41.10;20.99;66667.34;4939181;28;45821;-90
2023/06/25 12:10:17;;;;;;;;;8.00;8.00;;;;;40.96;21.21;66743.00;4998731;28;45811;-90
2023/06/25 12:12:44;;;;;;;;;12.67;11.00;;;;;40.57;21.72;66927.19;4930730;28;45506;-91
2023/06/25 12:15:10;;;;;;;;;7.33;7.33;;;;;39.92;22.03;67041.06;4931905;28;45579;-90
2023/06/25 12:17:35;;;;;;;;;10.67;10.67;;;;;40.06;22.22;67087.50;4934450;28;45669;-89
2023/06/25 12:20:01;;;;;;;;;21.00;21.00;;;;;39.74;22.12;67201.03;4927825;28;45550;-90
2023/06/25 12:22:26;;;;;;;;;19.33;17.00;;;;;39.56;22.34;67260.72;4929562;28;46710;-89
2023/06/25 12:24:51;;;;;;;;;15.67;13.00;;;;;39.40;22.55;67386.88;4934421;28;45421;-89
2023/06/25 12:27:18;;;;;;;;;9.00;8.33;;;;;39.22;22.93;67428.25;4916235;28;45577;-88
2023/06/25 12:29:44;;;;;;;;;7.00;7.00;;;;;39.05;23.69;67444.72;4939040;28;46307;-90
2023/06/25 12:32:09;;;;;;;;;9.00;7.00;;;;;39.00;23.68;67444.50;4938299;28;45364;-89
2023/06/25 12:34:36;;;;;;;;;7.00;7.00;;;;;38.66;22.73;67533.78;4930972;28;45498;-91
2023/06/25 12:37:01;;;;;;;;;12.00;10.67;;;;;38.58;23.78;67494.78;4918314;28;45411;-90
2023/06/25 12:39:27;;;;;;;;;9.67;9.67;;;;;38.52;24.10;67514.97;4922020;28;45780;-89
2023/06/25 12:41:52;;;;;;;;;6.00;6.00;;;;;38.57;23.18;67634.56;4971658;28;45578;-90
2023/06/25 12:44:18;;;;;;;;;8.00;8.00;;;;;38.33;23.85;67667.69;5002173;28;45458;-90
2023/06/25 12:46:43;;;;;;;;;9.00;9.00;;;;;38.40;23.79;67667.47;4932850;28;45427;-89
2023/06/25 12:49:08;;;;;;;;;11.00;8.00;;;;;38.27;24.18;67707.75;4929590;28;45364;-89
2023/06/25 12:51:34;;;;;;;;;9.00;9.00;;;;;38.02;24.69;67746.38;4925186;28;45421;-89
2023/06/25 12:53:59;;;;;;;;;6.33;6.33;;;;;38.10;24.49;67741.81;4935646;28;45872;-90
2023/06/25 12:56:26;;;;;;;;;7.00;7.00;;;;;37.86;23.63;67796.94;4923276;28;45413;-91
2023/06/25 12:58:51;;;;;;;;;6.67;6.67;;;;;37.60;24.46;67762.59;4933732;28;45411;-90
2023/06/25 13:01:16;;;;;;;;;7.67;7.67;;;;;37.73;24.19;67874.16;4934301;28;45424;-90
2023/06/25 13:03:42;;;;;;;;;8.33;8.33;;;;;37.66;24.11;67849.53;4925184;28;45437;-86
2023/06/25 13:06:07;;;;;;;;;11.00;8.00;;;;;37.57;24.46;67941.81;4937704;28;45514;-88
2023/06/25 13:08:32;;;;;;;;;9.00;8.33;;;;;37.28;24.80;67895.06;4935632;28;46760;-90
2023/06/25 13:10:58;;;;;;;;;8.67;8.67;;;;;37.38;25.56;67994.88;4931168;28;45774;-88
2023/06/25 13:13:23;;;;;;;;;6.67;6.67;;;;;37.24;25.15;68058.66;4929180;28;46018;-88
2023/06/25 13:15:49;;;;;;;;;8.33;8.00;;;;;37.16;25.74;68033.44;4929080;28;45963;-88
2023/06/25 13:18:14;;;;;;;;;7.33;7.33;;;;;36.86;25.57;68034.53;4933297;28;46665;-88
2023/06/25 13:20:39;;;;;;;;;11.33;9.67;;;;;37.02;25.79;68024.88;4930995;28;45841;-87
2023/06/25 13:23:05;;;;;;;;;6.00;6.00;;;;;36.85;25.78;68052.66;4928943;28;46600;-88
2023/06/25 13:25:30;;;;;;;;;8.67;8.67;;;;;36.05;25.71;68048.22;4933949;28;45427;-88
2023/06/25 13:27:55;;;;;;;;;9.67;9.67;;;;;36.45;26.00;68159.53;4934738;28;46327;-88
2023/06/25 13:30:22;;;;;;;;;8.00;8.00;;;;;36.69;26.12;68078.78;4935778;28;45460;-88
2023/06/25 13:32:48;;;;;;;;;8.00;8.00;;;;;36.65;26.44;68107.78;4937738;28;45473;-89
2023/06/25 13:35:13;;;;;;;;;7.67;7.67;;;;;36.67;26.14;68134.91;4900292;28;45451;-89
2023/06/25 13:37:38;;;;;;;;;8.67;8.67;;;;;36.70;25.15;68143.91;4926435;28;45434;-88
2023/06/25 13:40:04;;;;;;;;;4.00;4.00;;;;;36.39;25.04;68083.72;4932600;28;45622;-88
2023/06/25 13:42:29;;;;;;;;;8.00;7.33;;;;;36.45;24.97;68154.03;4933560;28;45477;-90
2023/06/25 13:44:57;;;;;;;;;9.67;8.00;;;;;36.13;25.12;68167.06;4930216;28;45818;-91
2023/06/25 13:47:23;;;;;;;;;7.67;6.67;;;;;35.78;25.02;68160.00;4934154;28;46538;-91
2023/06/25 13:49:48;;;;;;;;;9.00;8.00;;;;;36.52;24.94;68158.81;4970475;28;45474;-91
2023/06/25 13:52:13;;;;;;;;;8.67;8.67;;;;;35.87;24.94;68140.16;4934467;28;45415;-90
2023/06/25 13:54:39;;;;;;;;;9.67;8.00;;;;;35.45;25.26;68170.16;4920461;28;45335;-90
2023/06/25 13:57:04;;;;;;;;;10.33;9.00;;;;;35.62;26.05;68219.03;4930135;28;45430;-91
2023/06/25 13:59:29;;;;;;;;;9.00;9.00;;;;;35.29;25.70;68146.66;4917895;28;45738;-90
2023/06/25 14:01:55;;;;;;;;;8.00;8.00;;;;;35.58;25.85;68212.19;4931963;28;46006;-88
2023/06/25 14:04:20;;;;;;;;;7.00;7.00;;;;;35.53;25.76;68238.81;4931783;28;45453;-88
2023/06/25 14:06:46;;;;;;;;;10.33;9.00;;;;;35.43;25.70;68236.59;4930913;28;46031;-88
2023/06/25 14:09:11;;;;;;;;;7.67;7.67;;;;;35.50;26.31;68186.41;4929453;28;45723;-88
2023/06/25 14:11:36;;;;;;;;;7.33;7.00;;;;;35.63;26.19;68311.53;4927907;28;45987;-91
2023/06/25 14:14:02;;;;;;;;;8.00;8.00;;;;;35.48;26.06;68272.06;4926881;28;45599;-92
2023/06/25 14:16:31;;;;;;;;;8.00;8.00;;;;;35.43;25.41;68286.09;4921224;28;46563;-91
2023/06/25 14:19:00;;;;;;;;;9.33;7.00;;;;;36.08;25.48;68395.19;4926840;28;45493;-90
2023/06/25 14:21:30;;;;;;;;;9.67;9.67;;;;;35.74;25.17;68449.75;4934632;28;45619;-90
2023/06/25 14:23:55;;;;;;;;;5.00;5.00;;;;;35.34;25.36;68352.63;4937160;28;45868;-90
2023/06/25 14:26:21;;;;;;;;;10.00;8.67;;;;;35.60;25.28;68381.72;4935067;28;45753;-90
2023/06/25 14:28:46;;;;;;;;;6.67;6.33;;;;;35.36;25.07;68338.44;4934766;28;45877;-90
2023/06/25 14:31:12;;;;;;;;;7.33;7.33;;;;;35.04;24.99;68285.84;4917396;28;45526;-90
2023/06/25 14:33:39;;;;;;;;;10.33;10.33;;;;;35.95;24.55;68418.59;4935829;28;45468;-89
2023/06/25 14:36:05;;;;;;;;;9.00;9.00;;;;;34.84;24.87;68314.75;4917215;28;46324;-91
2023/06/25 14:38:30;;;;;;;;;8.33;8.33;;;;;35.32;24.27;68331.03;4935196;28;45507;-90
2023/06/25 14:40:58;;;;;;;;;9.00;7.67;;;;;35.68;24.53;68399.91;4921229;28;45929;-91
2023/06/25 14:43:23;;;;;;;;;7.33;7.33;;;;;35.68;25.05;68427.41;4917261;28;45608;-90
2023/06/25 14:45:49;;;;;;;;;8.00;8.00;;;;;35.29;25.14;68451.28;4916797;28;47293;-89
2023/06/25 14:48:17;;;;;;;;;7.33;7.33;;;;;35.80;25.61;68423.72;4917827;28;45419;-91
2023/06/25 14:50:43;;;;;;;;;37.33;34.33;;;;;35.08;25.60;68301.50;4930640;28;45409;-90
2023/06/25 14:53:08;;;;;;;;;7.67;7.67;;;;;35.24;25.61;68371.22;4934002;28;45316;-92
2023/06/25 14:55:34;;;;;;;;;9.00;9.00;;;;;34.61;24.87;68377.06;4927893;28;46270;-91
2023/06/25 14:58:08;;;;;;;;;12.00;8.00;;;;;35.37;25.21;68369.84;4933957;28;45644;-96
2023/06/25 15:00:33;;;;;;;;;7.67;7.67;;;;;34.94;25.50;68411.03;4928759;28;45486;-89
2023/06/25 15:02:59;;;;;;;;;8.00;8.00;;;;;35.62;25.15;68489.19;4917952;28;45384;-94
2023/06/25 15:05:24;;;;;;;;;7.00;7.00;;;;;34.75;25.70;68326.84;4929134;28;45920;-90
2023/06/25 15:07:49;;;;;;;;;7.00;7.00;;;;;34.86;25.80;68413.84;4999019;28;45622;-84
2023/06/25 15:10:18;;;;;;;;;8.00;8.00;;;;;35.26;25.39;68439.50;4931735;28;45490;-86
2023/06/25 15:12:43;;;;;;;;;9.33;8.33;;;;;34.92;25.10;68375.72;4918804;28;45612;-87
2023/06/25 15:15:09;;;;;;;;;9.67;9.33;;;;;35.33;25.47;68433.94;4923285;28;46130;-88
2023/06/25 15:17:34;;;;;;;;;8.67;8.67;;;;;34.92;25.95;68384.53;4952874;28;45455;-94
2023/06/25 15:19:59;;;;;;;;;10.33;8.67;;;;;35.39;25.62;68498.69;4928325;28;45500;-88
2023/06/25 15:22:25;;;;;;;;;7.00;6.67;;;;;34.79;26.09;68460.03;4936449;28;45374;-89
2023/06/25 15:24:50;;;;;;;;;8.00;8.00;;;;;35.24;25.51;68454.28;4935079;28;45660;-94
2023/06/25 15:27:15;;;;;;;;;8.33;8.33;;;;;34.70;25.87;68422.69;4912887;28;46986;-90
2023/06/25 15:29:41;;;;;;;;;9.67;8.33;;;;;34.60;25.25;68482.38;4915853;28;45755;-90
2023/06/25 15:32:08;;;;;;;;;7.33;7.33;;;;;35.31;25.18;68547.09;4935489;28;45419;-90
2023/06/25 15:34:33;;;;;;;;;9.67;8.67;;;;;35.23;25.44;68571.31;4996243;28;48052;-88
2023/06/25 15:36:58;;;;;;;;;7.00;7.00;;;;;34.99;25.70;68568.00;4920234;28;45471;-94
2023/06/25 15:39:24;;;;;;;;;6.00;6.00;;;;;35.05;24.41;68561.84;4938337;28;45652;-91
2023/06/25 15:41:49;;;;;;;;;8.33;7.00;;;;;35.26;25.49;68618.22;4932243;28;45521;-95
2023/06/25 15:44:15;;;;;;;;;9.00;9.00;;;;;34.76;25.61;68563.69;4933426;28;47542;-95
2023/06/25 15:46:40;;;;;;;;;8.33;8.33;;;;;34.95;25.19;68546.84;4931146;28;45557;-88
2023/06/25 15:49:09;;;;;;;;;11.67;9.00;;;;;35.11;25.59;68575.97;4932624;28;45719;-96
2023/06/25 15:51:40;;;;;;;;;8.00;7.67;;;;;34.44;25.15;68549.41;4918242;28;45698;-89
2023/06/25 15:54:06;;;;;;;;;8.00;8.00;;;;;34.73;26.19;68554.69;5006852;28;47709;-91